UEEE Airport Information

Runway Information
Runway 05L Length 8202 ft width 161 ft
Elevation 322 ft Threshold 0 ft Heading 30
Runway 23R Length 8202 ft Width 161 ft
Elevation 318 ft Threshold 3400 ft Heading 210
Runway 05R Length 11155 ft width 197 ft
Elevation 322 ft Threshold 2965 ft Heading 37
Runway 23L Length 11155 ft Width 197 ft
Elevation 315 ft Threshold 0 ft Heading 217
Airport Frequencies
Type APP Name APP Frequency 129.3 MHZ
Type ATIS Name ATIS Frequency 126.2 MHZ
Type GND Name GND Frequency 121.7 MHZ
Type RDR Name ASR Frequency 120.3 MHZ
Type TWR Name TWR Frequency 120 MHZ
Airport Navaids
Type NDB Name Yakutsk Frequency 334 KHZ
Type NDB Name Yakutsk Frequency 290 KHZ
Type NDB Name Yakutsk Frequency 334 KHZ
Airport Weather Information & NOTAM
ADDS - METARS form results

(1043 UTC 24 April 2019)
Data provider http://aviationweather.gov/metar/data/
 
METAR text: UEEE 241030Z 24004MPS CAVOK 05/M07 Q1013 R23L/09//60 NOSIG RMK QFE751
Conditions at: UEEE (YAKUTSK , RU) observed 1030 UTC 24 April 2019
Temperature: 5.0°C (41°F)
Dewpoint: -7.0°C (19°F) [RH = 41%]
Pressure (altimeter): 29.91 inches Hg (1013.0 mb)
Winds: from the WSW (240 degrees) at 9 MPH (8 knots; 4.1 m/s)
Visibility: 6 or more miles (10+ km)
Ceiling: ceiling and visibility are OK
Clouds: unknown
Weather: no significant weather observed at this time

METAR text: UEEE 241000Z 24005MPS CAVOK 06/M07 Q1013 R23L/09//60 NOSIG RMK QFE751
Conditions at: UEEE (YAKUTSK , RU) observed 1000 UTC 24 April 2019
Temperature: 6.0°C (43°F)
Dewpoint: -7.0°C (19°F) [RH = 39%]
Pressure (altimeter): 29.91 inches Hg (1013.0 mb)
Winds: from the WSW (240 degrees) at 12 MPH (10 knots; 5.1 m/s)
Visibility: 6 or more miles (10+ km)
Ceiling: ceiling and visibility are OK
Clouds: unknown
Weather: no significant weather observed at this time

Forecast for: UEEE (YAKUTSK , RU)
Text: TAF UEEE 240800Z 2409/2515 22003G08MPS 9999 SCT020CB OVC070
Forecast period: 0900 UTC 24 April 2019 to 1500 UTC 25 April 2019
Forecast type: FROM: standard forecast or significant change
Winds: from the SW (220 degrees) at 7 MPH (6 knots; 3.1 m/s)
gusting to 18 MPH (16 knots; 8.2 m/s)
Visibility: 6 or more miles 10+ km)
Ceiling: 7000 feet AGL
Clouds: scattered clouds at 2000 feet AGL
overcast cloud deck at 7000 feet AGL
Weather: no significant weather forecast for this period
Text: TEMPO 2412/2503 3200 -SHSNRA SCT010 BKN020CB OVC070
Forecast period: 1200 UTC 24 April 2019 to 0300 UTC 25 April 2019
Forecast type: TEMPORARY: The following changes expected for less than half the time period
Visibility: 1.99 miles (3.20 km)
Ceiling: 2000 feet AGL
Clouds: scattered clouds at 1000 feet AGL
broken clouds at 2000 feet AGL
overcast cloud deck at 7000 feet AGL
Weather: -SHSN -SHRA  (light snow showers, light rain showers)